sensor_id;sensor_type;location;lat;lon;timestamp;P1;durP1;ratioP1;P2;durP2;ratioP2
77402;SDS011;66472;53.046;8.656;2023-02-28T00:00:22;17.63;;;10.80;;
77402;SDS011;66472;53.046;8.656;2023-02-28T00:05:18;25.07;;;12.50;;
77402;SDS011;66472;53.046;8.656;2023-02-28T00:10:16;29.40;;;14.43;;
77402;SDS011;66472;53.046;8.656;2023-02-28T00:15:14;16.17;;;11.40;;
77402;SDS011;66472;53.046;8.656;2023-02-28T00:20:10;16.47;;;10.70;;
77402;SDS011;66472;53.046;8.656;2023-02-28T00:25:07;16.17;;;9.60;;
77402;SDS011;66472;53.046;8.656;2023-02-28T00:30:03;13.10;;;9.73;;
77402;SDS011;66472;53.046;8.656;2023-02-28T00:34:58;19.70;;;10.00;;
77402;SDS011;66472;53.046;8.656;2023-02-28T00:39:54;16.10;;;9.83;;
77402;SDS011;66472;53.046;8.656;2023-02-28T00:44:51;13.80;;;8.77;;
77402;SDS011;66472;53.046;8.656;2023-02-28T00:49:46;12.30;;;8.43;;
77402;SDS011;66472;53.046;8.656;2023-02-28T00:54:41;14.32;;;8.27;;
77402;SDS011;66472;53.046;8.656;2023-02-28T00:59:36;10.55;;;8.35;;
77402;SDS011;66472;53.046;8.656;2023-02-28T01:04:32;13.53;;;7.93;;
77402;SDS011;66472;53.046;8.656;2023-02-28T01:09:37;10.23;;;8.30;;
77402;SDS011;66472;53.046;8.656;2023-02-28T01:14:33;10.83;;;8.67;;
77402;SDS011;66472;53.046;8.656;2023-02-28T01:19:29;13.33;;;8.97;;
77402;SDS011;66472;53.046;8.656;2023-02-28T01:24:25;13.97;;;8.30;;
77402;SDS011;66472;53.046;8.656;2023-02-28T01:29:20;10.05;;;8.57;;
77402;SDS011;66472;53.046;8.656;2023-02-28T01:34:15;12.02;;;8.57;;
77402;SDS011;66472;53.046;8.656;2023-02-28T01:39:11;12.97;;;8.23;;
77402;SDS011;66472;53.046;8.656;2023-02-28T01:44:54;12.90;;;9.20;;
77402;SDS011;66472;53.046;8.656;2023-02-28T01:49:24;11.30;;;8.33;;
77402;SDS011;66472;53.046;8.656;2023-02-28T01:54:22;11.07;;;7.83;;
77402;SDS011;66472;53.046;8.656;2023-02-28T01:59:27;13.17;;;8.30;;
77402;SDS011;66472;53.046;8.656;2023-02-28T02:04:25;11.97;;;8.00;;
77402;SDS011;66472;53.046;8.656;2023-02-28T02:09:21;9.37;;;7.80;;
77402;SDS011;66472;53.046;8.656;2023-02-28T02:14:25;11.63;;;7.43;;
77402;SDS011;66472;53.046;8.656;2023-02-28T02:35:40;10.90;;;7.70;;
77402;SDS011;66472;53.046;8.656;2023-02-28T02:40:38;10.83;;;7.80;;
77402;SDS011;66472;53.046;8.656;2023-02-28T02:45:42;13.93;;;8.20;;
77402;SDS011;66472;53.046;8.656;2023-02-28T02:50:41;10.33;;;7.50;;
77402;SDS011;66472;53.046;8.656;2023-02-28T02:55:38;12.03;;;7.90;;
77402;SDS011;66472;53.046;8.656;2023-02-28T03:00:39;8.63;;;6.90;;
77402;SDS011;66472;53.046;8.656;2023-02-28T03:05:42;11.93;;;7.00;;
77402;SDS011;66472;53.046;8.656;2023-02-28T03:10:44;8.07;;;7.13;;
77402;SDS011;66472;53.046;8.656;2023-02-28T03:20:54;6.77;;;6.17;;
77402;SDS011;66472;53.046;8.656;2023-02-28T03:25:54;7.67;;;6.53;;
77402;SDS011;66472;53.046;8.656;2023-02-28T03:31:03;8.00;;;7.20;;
77402;SDS011;66472;53.046;8.656;2023-02-28T03:36:09;7.43;;;6.43;;
77402;SDS011;66472;53.046;8.656;2023-02-28T03:41:19;12.33;;;8.27;;
77402;SDS011;66472;53.046;8.656;2023-02-28T03:46:16;7.77;;;6.73;;
77402;SDS011;66472;53.046;8.656;2023-02-28T03:51:18;9.63;;;6.40;;
77402;SDS011;66472;53.046;8.656;2023-02-28T03:56:16;8.57;;;6.30;;
77402;SDS011;66472;53.046;8.656;2023-02-28T04:01:32;12.37;;;7.27;;
77402;SDS011;66472;53.046;8.656;2023-02-28T04:06:31;6.93;;;6.17;;
77402;SDS011;66472;53.046;8.656;2023-02-28T04:11:46;7.70;;;5.40;;
77402;SDS011;66472;53.046;8.656;2023-02-28T04:16:43;7.37;;;6.67;;
77402;SDS011;66472;53.046;8.656;2023-02-28T04:21:39;14.40;;;7.50;;
77402;SDS011;66472;53.046;8.656;2023-02-28T04:26:36;9.67;;;6.00;;
77402;SDS011;66472;53.046;8.656;2023-02-28T04:31:31;10.03;;;6.67;;
77402;SDS011;66472;53.046;8.656;2023-02-28T04:36:27;9.20;;;5.47;;
77402;SDS011;66472;53.046;8.656;2023-02-28T04:41:22;7.05;;;6.40;;
77402;SDS011;66472;53.046;8.656;2023-02-28T04:46:18;6.07;;;5.47;;
77402;SDS011;66472;53.046;8.656;2023-02-28T04:51:14;10.87;;;6.20;;
77402;SDS011;66472;53.046;8.656;2023-02-28T04:56:11;7.97;;;5.33;;
77402;SDS011;66472;53.046;8.656;2023-02-28T05:01:13;7.03;;;6.07;;
77402;SDS011;66472;53.046;8.656;2023-02-28T05:06:11;6.93;;;5.87;;
77402;SDS011;66472;53.046;8.656;2023-02-28T05:11:08;7.97;;;6.07;;
77402;SDS011;66472;53.046;8.656;2023-02-28T05:16:07;7.63;;;6.30;;
77402;SDS011;66472;53.046;8.656;2023-02-28T05:21:02;9.97;;;6.77;;
77402;SDS011;66472;53.046;8.656;2023-02-28T05:25:58;6.90;;;6.20;;
77402;SDS011;66472;53.046;8.656;2023-02-28T05:30:53;9.80;;;5.97;;
77402;SDS011;66472;53.046;8.656;2023-02-28T05:35:48;8.20;;;6.05;;
77402;SDS011;66472;53.046;8.656;2023-02-28T05:40:43;7.80;;;6.93;;
77402;SDS011;66472;53.046;8.656;2023-02-28T05:45:39;9.40;;;5.60;;
77402;SDS011;66472;53.046;8.656;2023-02-28T05:50:34;6.30;;;5.70;;
77402;SDS011;66472;53.046;8.656;2023-02-28T05:55:30;8.50;;;5.57;;
77402;SDS011;66472;53.046;8.656;2023-02-28T06:00:25;7.10;;;6.10;;
77402;SDS011;66472;53.046;8.656;2023-02-28T06:05:20;6.85;;;5.82;;
77402;SDS011;66472;53.046;8.656;2023-02-28T06:10:15;7.65;;;6.20;;
77402;SDS011;66472;53.046;8.656;2023-02-28T06:15:14;8.70;;;6.17;;
77402;SDS011;66472;53.046;8.656;2023-02-28T06:20:10;7.80;;;6.47;;
77402;SDS011;66472;53.046;8.656;2023-02-28T06:25:08;10.33;;;7.27;;
77402;SDS011;66472;53.046;8.656;2023-02-28T06:30:04;8.67;;;6.57;;
77402;SDS011;66472;53.046;8.656;2023-02-28T06:35:00;11.10;;;7.70;;
77402;SDS011;66472;53.046;8.656;2023-02-28T06:39:55;9.68;;;6.93;;
77402;SDS011;66472;53.046;8.656;2023-02-28T06:44:51;6.90;;;6.20;;
77402;SDS011;66472;53.046;8.656;2023-02-28T06:49:46;7.83;;;6.50;;
77402;SDS011;66472;53.046;8.656;2023-02-28T06:54:41;8.20;;;5.77;;
77402;SDS011;66472;53.046;8.656;2023-02-28T06:59:37;7.33;;;6.33;;
77402;SDS011;66472;53.046;8.656;2023-02-28T07:04:32;7.63;;;6.10;;
77402;SDS011;66472;53.046;8.656;2023-02-28T07:09:27;7.22;;;6.53;;
77402;SDS011;66472;53.046;8.656;2023-02-28T07:14:24;7.23;;;6.50;;
77402;SDS011;66472;53.046;8.656;2023-02-28T07:19:20;10.03;;;6.93;;
77402;SDS011;66472;53.046;8.656;2023-02-28T07:24:15;7.80;;;6.90;;
77402;SDS011;66472;53.046;8.656;2023-02-28T07:29:12;7.17;;;6.17;;
77402;SDS011;66472;53.046;8.656;2023-02-28T07:34:08;6.97;;;6.43;;
77402;SDS011;66472;53.046;8.656;2023-02-28T07:39:03;6.27;;;5.77;;
77402;SDS011;66472;53.046;8.656;2023-02-28T07:43:59;6.73;;;6.07;;
77402;SDS011;66472;53.046;8.656;2023-02-28T07:48:54;9.50;;;6.13;;
77402;SDS011;66472;53.046;8.656;2023-02-28T07:53:54;7.17;;;5.77;;
77402;SDS011;66472;53.046;8.656;2023-02-28T07:58:49;6.37;;;5.87;;
77402;SDS011;66472;53.046;8.656;2023-02-28T08:03:45;10.03;;;6.33;;
77402;SDS011;66472;53.046;8.656;2023-02-28T08:08:40;6.30;;;5.10;;
77402;SDS011;66472;53.046;8.656;2023-02-28T08:13:35;6.03;;;5.43;;
77402;SDS011;66472;53.046;8.656;2023-02-28T08:18:31;5.30;;;4.78;;
77402;SDS011;66472;53.046;8.656;2023-02-28T08:23:27;6.10;;;5.20;;
77402;SDS011;66472;53.046;8.656;2023-02-28T08:28:22;5.80;;;4.93;;
77402;SDS011;66472;53.046;8.656;2023-02-28T08:33:17;4.30;;;4.00;;
77402;SDS011;66472;53.046;8.656;2023-02-28T08:38:13;5.30;;;4.80;;
77402;SDS011;66472;53.046;8.656;2023-02-28T08:43:08;5.70;;;4.30;;
77402;SDS011;66472;53.046;8.656;2023-02-28T08:48:03;4.27;;;3.97;;
77402;SDS011;66472;53.046;8.656;2023-02-28T08:52:59;3.80;;;3.50;;
77402;SDS011;66472;53.046;8.656;2023-02-28T08:57:54;4.93;;;3.57;;
77402;SDS011;66472;53.046;8.656;2023-02-28T09:02:50;5.30;;;3.83;;
77402;SDS011;66472;53.046;8.656;2023-02-28T09:07:45;3.83;;;3.53;;
77402;SDS011;66472;53.046;8.656;2023-02-28T09:12:40;3.95;;;3.35;;
77402;SDS011;66472;53.046;8.656;2023-02-28T09:17:35;3.92;;;3.55;;
77402;SDS011;66472;53.046;8.656;2023-02-28T09:22:31;3.55;;;3.33;;
77402;SDS011;66472;53.046;8.656;2023-02-28T09:27:26;5.03;;;3.90;;
77402;SDS011;66472;53.046;8.656;2023-02-28T09:32:21;4.82;;;3.60;;
77402;SDS011;66472;53.046;8.656;2023-02-28T09:37:16;3.93;;;3.37;;
77402;SDS011;66472;53.046;8.656;2023-02-28T09:42:17;6.03;;;3.50;;
77402;SDS011;66472;53.046;8.656;2023-02-28T09:47:27;4.57;;;3.80;;
77402;SDS011;66472;53.046;8.656;2023-02-28T09:52:27;3.23;;;3.03;;
77402;SDS011;66472;53.046;8.656;2023-02-28T09:57:40;3.40;;;3.10;;
77402;SDS011;66472;53.046;8.656;2023-02-28T10:02:40;3.23;;;3.03;;
77402;SDS011;66472;53.046;8.656;2023-02-28T10:12:38;3.40;;;3.13;;
77402;SDS011;66472;53.046;8.656;2023-02-28T10:17:38;3.23;;;2.93;;
77402;SDS011;66472;53.046;8.656;2023-02-28T10:22:44;3.27;;;3.07;;
77402;SDS011;66472;53.046;8.656;2023-02-28T10:27:45;2.90;;;2.70;;
77402;SDS011;66472;53.046;8.656;2023-02-28T10:32:40;4.63;;;3.37;;
77402;SDS011;66472;53.046;8.656;2023-02-28T10:37:43;3.00;;;2.80;;
77402;SDS011;66472;53.046;8.656;2023-02-28T10:42:38;3.13;;;2.80;;
77402;SDS011;66472;53.046;8.656;2023-02-28T10:47:34;4.13;;;3.07;;
77402;SDS011;66472;53.046;8.656;2023-02-28T10:52:39;3.30;;;3.00;;
77402;SDS011;66472;53.046;8.656;2023-02-28T10:57:34;3.20;;;2.90;;
77402;SDS011;66472;53.046;8.656;2023-02-28T11:02:36;3.60;;;3.33;;
77402;SDS011;66472;53.046;8.656;2023-02-28T11:07:33;4.60;;;3.30;;
77402;SDS011;66472;53.046;8.656;2023-02-28T11:12:29;4.03;;;3.23;;
77402;SDS011;66472;53.046;8.656;2023-02-28T11:17:29;3.20;;;3.00;;
77402;SDS011;66472;53.046;8.656;2023-02-28T11:22:26;3.57;;;3.27;;
77402;SDS011;66472;53.046;8.656;2023-02-28T11:27:24;3.47;;;3.13;;
77402;SDS011;66472;53.046;8.656;2023-02-28T11:32:20;3.90;;;3.20;;
77402;SDS011;66472;53.046;8.656;2023-02-28T11:37:17;3.20;;;2.90;;
77402;SDS011;66472;53.046;8.656;2023-02-28T11:52:48;3.80;;;3.50;;
77402;SDS011;66472;53.046;8.656;2023-02-28T12:07:47;4.23;;;3.23;;
77402;SDS011;66472;53.046;8.656;2023-02-28T12:22:43;6.63;;;2.90;;
77402;SDS011;66472;53.046;8.656;2023-02-28T12:27:43;3.60;;;3.30;;
77402;SDS011;66472;53.046;8.656;2023-02-28T12:32:44;3.43;;;3.20;;
77402;SDS011;66472;53.046;8.656;2023-02-28T12:37:41;3.47;;;3.23;;
77402;SDS011;66472;53.046;8.656;2023-02-28T12:42:39;3.30;;;3.10;;
77402;SDS011;66472;53.046;8.656;2023-02-28T12:47:35;3.70;;;3.40;;
77402;SDS011;66472;53.046;8.656;2023-02-28T13:07:31;3.20;;;3.00;;
77402;SDS011;66472;53.046;8.656;2023-02-28T13:12:30;2.90;;;2.70;;
77402;SDS011;66472;53.046;8.656;2023-02-28T13:17:26;3.33;;;3.03;;
77402;SDS011;66472;53.046;8.656;2023-02-28T13:22:55;2.92;;;2.72;;
77402;SDS011;66472;53.046;8.656;2023-02-28T13:27:43;3.53;;;3.23;;
77402;SDS011;66472;53.046;8.656;2023-02-28T13:32:38;8.03;;;3.03;;
77402;SDS011;66472;53.046;8.656;2023-02-28T13:37:35;3.07;;;2.87;;
77402;SDS011;66472;53.046;8.656;2023-02-28T13:47:27;3.50;;;3.27;;
77402;SDS011;66472;53.046;8.656;2023-02-28T13:52:23;4.07;;;2.93;;
77402;SDS011;66472;53.046;8.656;2023-02-28T14:07:43;3.27;;;3.00;;
77402;SDS011;66472;53.046;8.656;2023-02-28T14:17:53;3.23;;;3.03;;
77402;SDS011;66472;53.046;8.656;2023-02-28T14:22:52;3.33;;;3.07;;
77402;SDS011;66472;53.046;8.656;2023-02-28T14:27:57;4.27;;;3.20;;
77402;SDS011;66472;53.046;8.656;2023-02-28T14:37:48;3.10;;;2.90;;
77402;SDS011;66472;53.046;8.656;2023-02-28T14:42:49;3.50;;;3.20;;
77402;SDS011;66472;53.046;8.656;2023-02-28T14:47:49;3.07;;;2.53;;
77402;SDS011;66472;53.046;8.656;2023-02-28T14:52:46;3.03;;;2.83;;
77402;SDS011;66472;53.046;8.656;2023-02-28T14:57:43;3.13;;;2.93;;
77402;SDS011;66472;53.046;8.656;2023-02-28T15:02:45;3.53;;;3.30;;
77402;SDS011;66472;53.046;8.656;2023-02-28T15:07:40;5.47;;;3.27;;
77402;SDS011;66472;53.046;8.656;2023-02-28T15:12:36;4.07;;;2.80;;
77402;SDS011;66472;53.046;8.656;2023-02-28T15:17:34;3.47;;;3.17;;
77402;SDS011;66472;53.046;8.656;2023-02-28T15:22:34;3.53;;;3.17;;
77402;SDS011;66472;53.046;8.656;2023-02-28T15:27:31;3.00;;;2.80;;
77402;SDS011;66472;53.046;8.656;2023-02-28T15:32:34;3.20;;;3.00;;
77402;SDS011;66472;53.046;8.656;2023-02-28T15:37:40;3.13;;;2.93;;
77402;SDS011;66472;53.046;8.656;2023-02-28T15:42:40;3.23;;;3.00;;
77402;SDS011;66472;53.046;8.656;2023-02-28T15:47:35;4.20;;;2.67;;
77402;SDS011;66472;53.046;8.656;2023-02-28T15:52:34;4.53;;;3.03;;
77402;SDS011;66472;53.046;8.656;2023-02-28T15:57:32;4.30;;;3.47;;
77402;SDS011;66472;53.046;8.656;2023-02-28T16:02:34;3.22;;;2.92;;
77402;SDS011;66472;53.046;8.656;2023-02-28T16:07:30;5.10;;;3.50;;
77402;SDS011;66472;53.046;8.656;2023-02-28T16:12:29;3.60;;;3.33;;
77402;SDS011;66472;53.046;8.656;2023-02-28T16:17:26;3.13;;;2.90;;
77402;SDS011;66472;53.046;8.656;2023-02-28T16:22:22;6.93;;;2.97;;
77402;SDS011;66472;53.046;8.656;2023-02-28T16:27:18;3.50;;;3.20;;
77402;SDS011;66472;53.046;8.656;2023-02-28T16:32:15;2.63;;;2.43;;
77402;SDS011;66472;53.046;8.656;2023-02-28T16:37:11;3.77;;;3.50;;
77402;SDS011;66472;53.046;8.656;2023-02-28T16:42:09;4.00;;;3.60;;
77402;SDS011;66472;53.046;8.656;2023-02-28T16:47:05;4.17;;;3.33;;
77402;SDS011;66472;53.046;8.656;2023-02-28T16:52:01;3.63;;;3.22;;
77402;SDS011;66472;53.046;8.656;2023-02-28T16:56:56;5.07;;;3.63;;
77402;SDS011;66472;53.046;8.656;2023-02-28T17:01:51;8.98;;;3.97;;
77402;SDS011;66472;53.046;8.656;2023-02-28T17:06:46;4.15;;;3.78;;
77402;SDS011;66472;53.046;8.656;2023-02-28T17:11:42;8.37;;;3.77;;
77402;SDS011;66472;53.046;8.656;2023-02-28T17:16:37;5.47;;;4.30;;
77402;SDS011;66472;53.046;8.656;2023-02-28T17:21:37;5.87;;;5.13;;
77402;SDS011;66472;53.046;8.656;2023-02-28T17:26:32;5.20;;;4.33;;
77402;SDS011;66472;53.046;8.656;2023-02-28T17:31:27;8.67;;;4.60;;
77402;SDS011;66472;53.046;8.656;2023-02-28T17:36:24;4.47;;;4.07;;
77402;SDS011;66472;53.046;8.656;2023-02-28T17:41:20;7.40;;;5.67;;
77402;SDS011;66472;53.046;8.656;2023-02-28T17:46:17;6.00;;;4.90;;
77402;SDS011;66472;53.046;8.656;2023-02-28T17:51:15;6.90;;;4.87;;
77402;SDS011;66472;53.046;8.656;2023-02-28T17:56:15;5.47;;;4.93;;
77402;SDS011;66472;53.046;8.656;2023-02-28T18:01:11;5.37;;;4.87;;
77402;SDS011;66472;53.046;8.656;2023-02-28T18:06:06;5.90;;;5.30;;
77402;SDS011;66472;53.046;8.656;2023-02-28T18:11:05;5.37;;;4.57;;
77402;SDS011;66472;53.046;8.656;2023-02-28T18:16:00;6.43;;;5.33;;
77402;SDS011;66472;53.046;8.656;2023-02-28T18:20:55;8.90;;;6.27;;
77402;SDS011;66472;53.046;8.656;2023-02-28T18:25:51;12.27;;;7.13;;
77402;SDS011;66472;53.046;8.656;2023-02-28T18:30:46;8.73;;;6.00;;
77402;SDS011;66472;53.046;8.656;2023-02-28T18:35:41;8.40;;;6.35;;
77402;SDS011;66472;53.046;8.656;2023-02-28T18:40:38;9.73;;;7.53;;
77402;SDS011;66472;53.046;8.656;2023-02-28T18:45:34;24.95;;;10.00;;
77402;SDS011;66472;53.046;8.656;2023-02-28T18:50:30;21.67;;;9.67;;
77402;SDS011;66472;53.046;8.656;2023-02-28T18:55:25;15.27;;;7.60;;
77402;SDS011;66472;53.046;8.656;2023-02-28T19:00:21;6.73;;;5.40;;
77402;SDS011;66472;53.046;8.656;2023-02-28T19:05:19;12.83;;;6.83;;
77402;SDS011;66472;53.046;8.656;2023-02-28T19:10:14;19.83;;;6.93;;
77402;SDS011;66472;53.046;8.656;2023-02-28T19:15:10;17.23;;;8.77;;
77402;SDS011;66472;53.046;8.656;2023-02-28T19:20:06;7.90;;;5.93;;
77402;SDS011;66472;53.046;8.656;2023-02-28T19:25:03;8.90;;;4.60;;
77402;SDS011;66472;53.046;8.656;2023-02-28T19:29:58;6.63;;;5.30;;
77402;SDS011;66472;53.046;8.656;2023-02-28T19:34:53;9.40;;;5.27;;
77402;SDS011;66472;53.046;8.656;2023-02-28T19:39:49;7.07;;;5.07;;
77402;SDS011;66472;53.046;8.656;2023-02-28T19:44:44;9.35;;;5.40;;
77402;SDS011;66472;53.046;8.656;2023-02-28T19:49:39;7.47;;;4.87;;
77402;SDS011;66472;53.046;8.656;2023-02-28T19:54:35;7.50;;;5.27;;
77402;SDS011;66472;53.046;8.656;2023-02-28T19:59:30;16.20;;;5.85;;
77402;SDS011;66472;53.046;8.656;2023-02-28T20:04:25;16.53;;;6.70;;
77402;SDS011;66472;53.046;8.656;2023-02-28T20:09:21;15.93;;;7.00;;
77402;SDS011;66472;53.046;8.656;2023-02-28T20:14:16;16.05;;;7.35;;
77402;SDS011;66472;53.046;8.656;2023-02-28T20:19:12;13.23;;;7.70;;
77402;SDS011;66472;53.046;8.656;2023-02-28T20:24:07;15.57;;;8.13;;
77402;SDS011;66472;53.046;8.656;2023-02-28T20:29:03;12.53;;;7.30;;
77402;SDS011;66472;53.046;8.656;2023-02-28T20:33:58;10.53;;;7.80;;
77402;SDS011;66472;53.046;8.656;2023-02-28T20:38:53;14.83;;;8.80;;
77402;SDS011;66472;53.046;8.656;2023-02-28T20:43:55;12.07;;;8.17;;
77402;SDS011;66472;53.046;8.656;2023-02-28T20:48:56;15.17;;;7.87;;
77402;SDS011;66472;53.046;8.656;2023-02-28T20:53:51;20.23;;;8.80;;
77402;SDS011;66472;53.046;8.656;2023-02-28T20:58:47;13.10;;;7.68;;
77402;SDS011;66472;53.046;8.656;2023-02-28T21:03:47;16.17;;;8.27;;
77402;SDS011;66472;53.046;8.656;2023-02-28T21:08:43;15.53;;;8.57;;
77402;SDS011;66472;53.046;8.656;2023-02-28T21:13:38;16.70;;;8.33;;
77402;SDS011;66472;53.046;8.656;2023-02-28T21:18:35;12.27;;;7.70;;
77402;SDS011;66472;53.046;8.656;2023-02-28T21:23:30;12.07;;;8.57;;
77402;SDS011;66472;53.046;8.656;2023-02-28T21:28:26;13.57;;;9.13;;
77402;SDS011;66472;53.046;8.656;2023-02-28T21:33:21;18.33;;;11.05;;
77402;SDS011;66472;53.046;8.656;2023-02-28T21:38:16;19.73;;;11.93;;
77402;SDS011;66472;53.046;8.656;2023-02-28T21:43:13;20.90;;;12.03;;
77402;SDS011;66472;53.046;8.656;2023-02-28T21:48:08;17.48;;;11.18;;
77402;SDS011;66472;53.046;8.656;2023-02-28T21:53:04;21.90;;;11.80;;
77402;SDS011;66472;53.046;8.656;2023-02-28T21:57:59;15.32;;;9.90;;
77402;SDS011;66472;53.046;8.656;2023-02-28T22:02:54;14.50;;;9.85;;
77402;SDS011;66472;53.046;8.656;2023-02-28T22:07:50;17.42;;;10.65;;
77402;SDS011;66472;53.046;8.656;2023-02-28T22:12:45;20.38;;;10.52;;
77402;SDS011;66472;53.046;8.656;2023-02-28T22:17:40;15.82;;;10.20;;
77402;SDS011;66472;53.046;8.656;2023-02-28T22:22:36;17.30;;;11.23;;
77402;SDS011;66472;53.046;8.656;2023-02-28T22:27:32;12.48;;;9.40;;
77402;SDS011;66472;53.046;8.656;2023-02-28T22:32:27;18.67;;;10.53;;
77402;SDS011;66472;53.046;8.656;2023-02-28T22:37:22;17.02;;;10.00;;
77402;SDS011;66472;53.046;8.656;2023-02-28T22:42:18;21.88;;;10.18;;
77402;SDS011;66472;53.046;8.656;2023-02-28T22:47:13;17.98;;;11.43;;
77402;SDS011;66472;53.046;8.656;2023-02-28T22:52:08;18.20;;;10.55;;
77402;SDS011;66472;53.046;8.656;2023-02-28T22:57:03;19.90;;;10.52;;
77402;SDS011;66472;53.046;8.656;2023-02-28T23:01:59;17.37;;;10.13;;
77402;SDS011;66472;53.046;8.656;2023-02-28T23:06:54;15.87;;;8.90;;
77402;SDS011;66472;53.046;8.656;2023-02-28T23:11:50;17.60;;;9.37;;
77402;SDS011;66472;53.046;8.656;2023-02-28T23:16:49;15.63;;;8.83;;
77402;SDS011;66472;53.046;8.656;2023-02-28T23:21:45;16.63;;;9.70;;
77402;SDS011;66472;53.046;8.656;2023-02-28T23:26:42;18.03;;;9.23;;
77402;SDS011;66472;53.046;8.656;2023-02-28T23:31:37;18.67;;;9.27;;
77402;SDS011;66472;53.046;8.656;2023-02-28T23:36:33;15.20;;;9.25;;
77402;SDS011;66472;53.046;8.656;2023-02-28T23:41:28;15.57;;;9.18;;
77402;SDS011;66472;53.046;8.656;2023-02-28T23:46:23;14.80;;;9.47;;
77402;SDS011;66472;53.046;8.656;2023-02-28T23:51:19;13.65;;;10.30;;
77402;SDS011;66472;53.046;8.656;2023-02-28T23:56:16;15.37;;;9.27;;
